Time;durP1;ratioP1;P1;durP2;ratioP2;P2;SDS_P1;SDS_P2;PMS_P1;PMS_P2;Temp;Humidity;BMP_temperature;BMP_pressure;BME280_temperature;BME280_humidity;BME280_pressure;Samples;Min_cycle;Max_cycle;Signal;HPM_P1;HPM_P2
2023/07/08 00:03:49;;;;;;;9.23;2.75;;;21.50;84.90;;;;;;10454430;28;20021;-69
2023/07/08 00:08:50;;;;;;;4.80;2.67;;;21.50;85.00;;;;;;10450407;28;20017;-69
2023/07/08 00:13:51;;;;;;;3.25;2.50;;;21.50;85.00;;;;;;10445237;28;20028;-69
2023/07/08 00:18:51;;;;;;;4.55;2.72;;;21.50;85.00;;;;;;10452141;28;20496;-69
2023/07/08 00:23:52;;;;;;;5.05;2.65;;;21.40;84.90;;;;;;10448487;28;20033;-69
2023/07/08 00:28:53;;;;;;;3.35;2.50;;;21.40;84.90;;;;;;10447615;28;20025;-69
2023/07/08 00:33:55;;;;;;;2.92;2.35;;;21.40;84.90;;;;;;10446546;28;20044;-69
2023/07/08 00:38:57;;;;;;;4.20;3.05;;;21.30;84.80;;;;;;10447929;28;20031;-69
2023/07/08 00:43:59;;;;;;;3.03;2.15;;;21.30;84.80;;;;;;10455219;28;20398;-69
2023/07/08 00:49:18;;;;;;;3.70;2.67;;;21.30;84.90;;;;;;10454767;28;20048;-69
2023/07/08 00:54:20;;;;;;;3.83;2.60;;;21.20;84.70;;;;;;10438545;28;20420;-69
2023/07/08 00:59:23;;;;;;;6.47;3.03;;;21.20;84.80;;;;;;10452987;28;20045;-69
2023/07/08 01:04:34;;;;;;;3.72;2.80;;;21.20;84.80;;;;;;10448224;28;20223;-69
2023/07/08 01:09:44;;;;;;;4.32;2.60;;;21.10;84.80;;;;;;10451147;28;20089;-69
2023/07/08 01:14:47;;;;;;;3.30;2.38;;;21.10;84.80;;;;;;10452646;28;20021;-69
2023/07/08 01:19:51;;;;;;;3.78;2.72;;;21.10;84.90;;;;;;10450848;28;20500;-69
2023/07/08 01:24:51;;;;;;;3.55;2.63;;;21.10;84.80;;;;;;10456242;28;20060;-69
2023/07/08 01:29:53;;;;;;;4.07;2.67;;;21.00;84.80;;;;;;10443871;28;20505;-69
2023/07/08 01:35:00;;;;;;;3.20;2.50;;;21.00;84.90;;;;;;10444422;28;20108;-69
2023/07/08 01:40:35;;;;;;;3.85;2.63;;;21.00;84.80;;;;;;10448828;28;20027;-69
2023/07/08 01:45:39;;;;;;;5.55;2.88;;;21.00;84.70;;;;;;10433260;28;20033;-69
2023/07/08 01:51:02;;;;;;;3.35;2.78;;;20.90;84.80;;;;;;10452632;28;20028;-69
2023/07/08 01:56:04;;;;;;;3.60;2.67;;;20.90;84.80;;;;;;10437900;28;20017;-69
2023/07/08 02:01:06;;;;;;;4.22;2.92;;;20.90;84.80;;;;;;10438720;28;20053;-69
2023/07/08 02:06:08;;;;;;;3.03;2.63;;;20.80;84.70;;;;;;10443356;28;20488;-67
2023/07/08 02:11:09;;;;;;;4.05;2.70;;;20.80;84.80;;;;;;10450027;28;20104;-67
2023/07/08 02:16:09;;;;;;;3.70;2.83;;;20.80;84.70;;;;;;10446544;28;20027;-68
2023/07/08 02:21:10;;;;;;;3.47;2.90;;;20.80;84.70;;;;;;10452067;28;20041;-67
2023/07/08 02:26:11;;;;;;;3.40;3.00;;;20.70;84.60;;;;;;10445768;28;20161;-68
2023/07/08 02:31:11;;;;;;;4.25;3.13;;;20.70;84.60;;;;;;10444582;28;20105;-66
2023/07/08 02:36:12;;;;;;;5.15;2.88;;;20.70;84.60;;;;;;10448921;28;20025;-68
2023/07/08 02:41:12;;;;;;;6.38;3.10;;;20.60;84.50;;;;;;10445058;28;20413;-68
2023/07/08 02:46:13;;;;;;;4.65;3.60;;;20.60;84.50;;;;;;10453098;28;20040;-66
2023/07/08 02:51:14;;;;;;;5.32;3.42;;;20.60;84.50;;;;;;10435048;28;20048;-67
2023/07/08 02:56:14;;;;;;;5.00;2.85;;;20.60;84.50;;;;;;10454635;28;20029;-68
2023/07/08 03:01:18;;;;;;;5.10;3.10;;;20.50;84.40;;;;;;10448415;28;20056;-68
2023/07/08 03:06:18;;;;;;;3.88;2.75;;;20.50;84.40;;;;;;10449324;28;20013;-68
2023/07/08 03:11:21;;;;;;;4.68;3.13;;;20.50;84.40;;;;;;10446920;28;20060;-68
2023/07/08 03:16:21;;;;;;;4.82;3.28;;;20.40;84.40;;;;;;10446381;28;20112;-68
2023/07/08 03:21:23;;;;;;;4.55;3.15;;;20.40;84.40;;;;;;10443393;28;20024;-68
2023/07/08 03:26:26;;;;;;;4.60;2.90;;;20.40;84.40;;;;;;10440714;28;20116;-67
2023/07/08 03:31:26;;;;;;;5.47;3.05;;;20.40;84.40;;;;;;10440153;28;20028;-68
2023/07/08 03:36:27;;;;;;;4.72;3.38;;;20.30;84.30;;;;;;10442114;28;20203;-68
2023/07/08 03:41:28;;;;;;;5.75;3.38;;;20.30;84.30;;;;;;10434791;28;20023;-68
2023/07/08 03:46:28;;;;;;;7.50;3.35;;;20.30;84.30;;;;;;10451334;28;20065;-67
2023/07/08 03:51:33;;;;;;;3.88;3.10;;;20.30;84.40;;;;;;10437876;28;20027;-67
2023/07/08 03:56:40;;;;;;;4.43;3.20;;;20.20;84.30;;;;;;10440927;28;20512;-66
2023/07/08 04:01:46;;;;;;;4.28;3.10;;;20.20;84.30;;;;;;10444106;28;20021;-67
2023/07/08 04:06:46;;;;;;;4.30;3.28;;;20.20;84.30;;;;;;10438229;28;20025;-65
2023/07/08 04:11:47;;;;;;;5.75;3.83;;;20.20;84.30;;;;;;10449405;28;20362;-66
2023/07/08 04:16:54;;;;;;;4.55;3.63;;;20.20;84.20;;;;;;10431866;28;20013;-67
2023/07/08 04:21:55;;;;;;;4.65;3.53;;;20.10;84.20;;;;;;10456098;28;20029;-67
2023/07/08 04:26:55;;;;;;;5.47;3.58;;;20.10;84.20;;;;;;10442665;28;20401;-68
2023/07/08 04:31:56;;;;;;;4.80;3.47;;;20.10;84.20;;;;;;10437475;28;20028;-67
2023/07/08 04:36:56;;;;;;;4.65;3.58;;;20.00;84.20;;;;;;10435576;28;20075;-67
2023/07/08 04:41:57;;;;;;;5.63;3.40;;;20.00;84.30;;;;;;10441005;28;20021;-67
2023/07/08 04:46:58;;;;;;;5.88;4.28;;;20.00;84.10;;;;;;10443149;28;20029;-67
2023/07/08 04:51:59;;;;;;;5.65;3.53;;;20.00;84.10;;;;;;10444604;28;20479;-67
2023/07/08 04:57:00;;;;;;;4.78;3.60;;;20.00;84.10;;;;;;10453666;28;20082;-67
2023/07/08 05:02:00;;;;;;;3.90;3.40;;;20.00;84.10;;;;;;10450901;28;20027;-67
2023/07/08 05:07:01;;;;;;;5.15;3.85;;;20.00;84.10;;;;;;10441284;28;20068;-67
2023/07/08 05:12:02;;;;;;;6.10;3.55;;;20.00;84.00;;;;;;10441646;28;20568;-66
2023/07/08 05:17:03;;;;;;;4.18;3.45;;;20.00;84.00;;;;;;10439583;28;20409;-67
2023/07/08 05:22:03;;;;;;;4.65;3.40;;;20.00;84.10;;;;;;10444765;28;20200;-66
2023/07/08 05:27:04;;;;;;;4.28;3.67;;;20.00;84.00;;;;;;10435302;28;20111;-67
2023/07/08 05:32:05;;;;;;;4.55;3.83;;;20.00;84.00;;;;;;10441368;28;20025;-67
2023/07/08 05:37:06;;;;;;;4.85;3.67;;;20.00;83.90;;;;;;10458849;28;20033;-66
2023/07/08 05:42:07;;;;;;;5.50;3.70;;;20.00;83.90;;;;;;10446609;28;20142;-67
2023/07/08 05:47:07;;;;;;;3.88;3.42;;;20.00;83.90;;;;;;10455463;28;20032;-67
2023/07/08 05:52:11;;;;;;;4.47;3.45;;;20.00;83.90;;;;;;10447726;28;20048;-68
2023/07/08 05:57:12;;;;;;;4.63;3.35;;;20.00;83.90;;;;;;10455502;28;20025;-67
2023/07/08 06:02:12;;;;;;;6.20;3.55;;;20.00;83.90;;;;;;10445901;28;20448;-67
2023/07/08 06:07:13;;;;;;;4.68;3.35;;;20.00;83.90;;;;;;10453675;28;20083;-67
2023/07/08 06:12:14;;;;;;;3.83;3.08;;;20.00;83.90;;;;;;10451824;28;20026;-67
2023/07/08 06:17:15;;;;;;;5.07;3.80;;;20.00;83.90;;;;;;10464798;28;20086;-68
2023/07/08 06:22:16;;;;;;;5.40;3.63;;;20.00;83.90;;;;;;10457840;28;20543;-67
2023/07/08 06:27:17;;;;;;;4.45;3.15;;;20.00;83.90;;;;;;10449351;28;20058;-67
2023/07/08 06:32:17;;;;;;;4.80;3.35;;;20.00;84.00;;;;;;10461579;28;20032;-66
2023/07/08 06:37:18;;;;;;;4.07;3.28;;;20.00;84.10;;;;;;10463346;28;20077;-67
2023/07/08 06:42:19;;;;;;;5.22;3.05;;;20.00;84.10;;;;;;10452422;28;20039;-68
2023/07/08 06:47:22;;;;;;;3.85;2.78;;;20.00;84.10;;;;;;10457618;28;20108;-67
2023/07/08 06:52:22;;;;;;;4.97;3.28;;;20.00;84.10;;;;;;10455416;28;20043;-68
2023/07/08 06:57:23;;;;;;;5.00;3.00;;;20.10;84.20;;;;;;10449709;28;20295;-67
2023/07/08 07:02:24;;;;;;;6.07;3.15;;;20.10;84.20;;;;;;10456313;28;20472;-67
2023/07/08 07:07:24;;;;;;;3.35;2.60;;;20.10;84.20;;;;;;10452242;28;20077;-67
2023/07/08 07:12:26;;;;;;;3.40;2.72;;;20.20;84.30;;;;;;10439792;28;20573;-67
2023/07/08 07:17:27;;;;;;;3.92;2.58;;;20.20;84.30;;;;;;10435748;28;20187;-67
2023/07/08 07:22:28;;;;;;;3.85;3.20;;;20.20;84.20;;;;;;10451315;28;20504;-67
2023/07/08 07:27:29;;;;;;;4.07;3.00;;;20.20;84.20;;;;;;10453346;28;20040;-67
2023/07/08 07:32:32;;;;;;;3.28;2.70;;;20.30;84.30;;;;;;10429140;28;20018;-67
2023/07/08 07:37:33;;;;;;;4.50;2.90;;;20.40;84.30;;;;;;10451165;28;20398;-67
2023/07/08 07:42:33;;;;;;;4.20;3.03;;;20.30;84.20;;;;;;10434092;28;20021;-67
2023/07/08 07:47:37;;;;;;;4.18;2.90;;;20.40;84.30;;;;;;10439180;28;20110;-67
2023/07/08 07:52:38;;;;;;;3.67;3.28;;;20.40;84.30;;;;;;10434709;28;20163;-66
2023/07/08 07:57:40;;;;;;;3.70;3.05;;;20.40;84.30;;;;;;10439870;28;20029;-66
2023/07/08 08:02:41;;;;;;;3.25;2.85;;;20.50;84.30;;;;;;10448023;28;20099;-67
2023/07/08 08:07:42;;;;;;;3.83;3.10;;;20.50;84.30;;;;;;10442093;28;20021;-67
2023/07/08 08:12:42;;;;;;;4.07;2.85;;;20.60;84.30;;;;;;10444807;28;20019;-67
2023/07/08 08:17:47;;;;;;;3.47;2.72;;;20.60;84.30;;;;;;10439523;28;20373;-67
2023/07/08 08:22:47;;;;;;;4.45;2.85;;;20.70;84.30;;;;;;10439371;28;20017;-68
2023/07/08 08:27:48;;;;;;;5.53;3.20;;;20.70;84.30;;;;;;10434811;28;20033;-67
2023/07/08 08:32:49;;;;;;;3.38;2.83;;;20.70;84.40;;;;;;10448063;28;20075;-67
2023/07/08 08:37:49;;;;;;;3.85;2.80;;;20.80;84.40;;;;;;10440015;28;20063;-67
2023/07/08 08:43:00;;;;;;;3.35;2.75;;;20.90;84.50;;;;;;10442152;28;20021;-67
2023/07/08 08:48:04;;;;;;;4.28;2.58;;;20.90;84.60;;;;;;10439723;28;20017;-68
2023/07/08 08:53:09;;;;;;;3.95;3.00;;;20.90;84.60;;;;;;10444712;28;20080;-67
2023/07/08 08:58:23;;;;;;;3.15;2.85;;;21.00;84.60;;;;;;10436504;28;20081;-68
2023/07/08 09:03:52;;;;;;;5.15;3.22;;;21.00;84.60;;;;;;10445373;28;20032;-66
2023/07/08 09:08:56;;;;;;;6.60;3.35;;;21.10;85.00;;;;;;10445057;28;20036;-67
2023/07/08 09:13:56;;;;;;;4.43;2.90;;;21.20;84.70;;;;;;10439246;28;20021;-67
2023/07/08 09:19:00;;;;;;;4.20;2.72;;;21.20;84.70;;;;;;10437439;28;20026;-67
2023/07/08 09:24:07;;;;;;;4.05;3.03;;;21.30;84.80;;;;;;10453668;28;20428;-67
2023/07/08 09:29:09;;;;;;;4.03;2.97;;;21.30;84.80;;;;;;10447902;28;20097;-67
2023/07/08 09:34:16;;;;;;;4.15;3.00;;;21.40;84.80;;;;;;10449359;28;20116;-67
2023/07/08 09:39:18;;;;;;;7.00;3.53;;;21.40;84.80;;;;;;10436417;28;20028;-66
2023/07/08 09:44:29;;;;;;;3.65;3.10;;;21.50;84.80;;;;;;10443153;28;20017;-67
2023/07/08 09:49:36;;;;;;;4.63;3.10;;;21.60;85.00;;;;;;10442915;28;20029;-68
2023/07/08 09:54:37;;;;;;;4.05;2.72;;;21.60;84.90;;;;;;10442410;28;20496;-68
2023/07/08 09:59:46;;;;;;;5.10;3.60;;;21.80;84.90;;;;;;10439807;28;20044;-66
2023/07/08 10:04:46;;;;;;;4.00;3.22;;;21.80;85.00;;;;;;10443588;28;20025;-65
2023/07/08 10:09:50;;;;;;;4.80;3.13;;;21.90;85.00;;;;;;10449994;28;20028;-67
2023/07/08 10:14:56;;;;;;;4.28;3.45;;;21.90;85.00;;;;;;10441238;28;20531;-67
2023/07/08 10:19:57;;;;;;;5.43;3.50;;;22.00;85.10;;;;;;10454618;28;20401;-67
2023/07/08 10:25:03;;;;;;;4.25;3.60;;;22.10;85.10;;;;;;10436605;28;20036;-67
2023/07/08 10:30:10;;;;;;;3.75;3.20;;;22.10;85.20;;;;;;10451836;28;20029;-68
2023/07/08 10:35:30;;;;;;;5.75;3.40;;;22.20;85.30;;;;;;10449893;28;20036;-66
2023/07/08 10:40:43;;;;;;;4.15;3.40;;;22.30;85.50;;;;;;10456901;28;20017;-68
2023/07/08 10:46:18;;;;;;;4.63;3.33;;;22.40;85.50;;;;;;10444628;28;20039;-67
2023/07/08 10:51:35;;;;;;;5.35;3.58;;;22.40;85.80;;;;;;10436019;28;20469;-67
2023/07/08 10:56:44;;;;;;;4.43;3.28;;;22.50;85.50;;;;;;10449888;28;20255;-69
2023/07/08 11:02:02;;;;;;;4.65;3.55;;;22.60;85.50;;;;;;10439282;28;20558;-68
2023/07/08 11:07:17;;;;;;;8.75;3.90;;;22.70;85.70;;;;;;10447354;28;20033;-68
2023/07/08 11:12:35;;;;;;;5.93;4.18;;;22.70;85.80;;;;;;10452079;28;20021;-67
2023/07/08 11:17:46;;;;;;;5.47;3.67;;;22.80;86.10;;;;;;10453038;28;20039;-67
2023/07/08 11:22:54;;;;;;;6.15;3.95;;;22.90;86.00;;;;;;10453617;28;20449;-67
2023/07/08 11:27:58;;;;;;;4.07;3.37;;;23.00;85.70;;;;;;10452317;28;20021;-67
2023/07/08 11:33:11;;;;;;;4.40;3.42;;;23.00;85.60;;;;;;10458047;28;20289;-68
2023/07/08 11:38:15;;;;;;;4.30;3.58;;;23.10;85.90;;;;;;10457154;28;20078;-68
2023/07/08 11:43:16;;;;;;;5.07;3.85;;;23.20;85.60;;;;;;10447862;28;20013;-67
2023/07/08 11:48:28;;;;;;;4.90;3.63;;;23.30;85.40;;;;;;10445058;28;20044;-66
2023/07/08 11:53:28;;;;;;;6.03;3.92;;;23.40;85.50;;;;;;10432645;28;20427;-67
2023/07/08 11:58:31;;;;;;;5.38;3.65;;;23.50;85.30;;;;;;10450371;28;20086;-68
2023/07/08 12:03:51;;;;;;;6.75;3.85;;;23.60;85.30;;;;;;10452199;28;20028;-68
2023/07/08 12:08:53;;;;;;;5.85;4.15;;;23.70;85.20;;;;;;10440498;28;20024;-68
2023/07/08 12:14:02;;;;;;;5.88;3.83;;;23.80;85.20;;;;;;10448888;28;20021;-68
2023/07/08 12:19:04;;;;;;;4.72;3.70;;;23.80;85.20;;;;;;10420673;28;20022;-68
2023/07/08 12:24:06;;;;;;;5.43;3.92;;;23.90;85.00;;;;;;10441062;28;20033;-67
2023/07/08 12:29:12;;;;;;;5.63;3.70;;;24.00;84.80;;;;;;10451399;28;20021;-67
2023/07/08 12:34:17;;;;;;;7.90;4.18;;;24.10;84.50;;;;;;10451395;28;20104;-68
2023/07/08 12:39:18;;;;;;;8.38;4.03;;;24.20;84.50;;;;;;10439263;28;20029;-67
2023/07/08 12:44:21;;;;;;;4.40;3.72;;;24.30;84.20;;;;;;10429069;28;20497;-67
2023/07/08 12:49:26;;;;;;;6.18;4.20;;;24.40;84.00;;;;;;10440074;28;20032;-68
2023/07/08 12:54:28;;;;;;;5.28;4.05;;;24.50;84.00;;;;;;10439046;28;20599;-68
2023/07/08 12:59:29;;;;;;;6.50;3.75;;;24.50;83.90;;;;;;10446270;28;20017;-67
2023/07/08 13:04:30;;;;;;;6.40;4.05;;;24.60;83.90;;;;;;10440112;28;20546;-67
2023/07/08 13:09:35;;;;;;;6.13;4.00;;;24.70;83.90;;;;;;10437336;28;20023;-67
2023/07/08 13:14:36;;;;;;;5.30;3.88;;;24.80;83.70;;;;;;10436871;28;20025;-68
2023/07/08 13:19:36;;;;;;;7.15;4.45;;;24.90;83.50;;;;;;10447403;28;20496;-67
2023/07/08 13:24:39;;;;;;;6.82;4.13;;;25.00;83.20;;;;;;10438066;28;20401;-68
2023/07/08 13:29:39;;;;;;;5.18;4.10;;;25.10;83.10;;;;;;10437605;28;20029;-67
2023/07/08 13:34:40;;;;;;;5.13;4.28;;;25.20;83.00;;;;;;10436337;28;20029;-68
2023/07/08 13:39:46;;;;;;;5.60;4.32;;;25.40;83.00;;;;;;10433522;28;20519;-67
2023/07/08 13:44:48;;;;;;;5.20;3.78;;;25.50;83.00;;;;;;10434791;28;20028;-67
2023/07/08 13:49:56;;;;;;;5.78;4.05;;;25.60;82.80;;;;;;10439673;28;20116;-67
2023/07/08 13:55:07;;;;;;;5.50;3.85;;;25.70;82.40;;;;;;10439525;28;20496;-68
2023/07/08 14:00:08;;;;;;;7.38;4.82;;;25.90;82.30;;;;;;10441712;28;20035;-68
2023/07/08 14:05:13;;;;;;;5.03;4.15;;;26.00;82.10;;;;;;10441847;28;20024;-68
2023/07/08 14:10:14;;;;;;;7.35;4.50;;;26.10;81.80;;;;;;10444808;28;20018;-68
2023/07/08 14:15:15;;;;;;;5.15;4.10;;;26.30;81.80;;;;;;10445803;28;20025;-67
2023/07/08 14:20:17;;;;;;;9.30;4.30;;;26.40;81.50;;;;;;10448584;28;20408;-69
2023/07/08 14:25:20;;;;;;;6.72;4.43;;;26.60;81.40;;;;;;10447760;28;20036;-68
2023/07/08 14:30:22;;;;;;;6.00;4.15;;;26.70;81.20;;;;;;10448846;28;20025;-68
2023/07/08 14:35:29;;;;;;;7.68;4.35;;;26.80;81.40;;;;;;10442598;28;20067;-68
2023/07/08 14:40:38;;;;;;;7.22;4.10;;;26.90;81.30;;;;;;10456357;28;20070;-67
2023/07/08 14:45:48;;;;;;;6.07;4.03;;;27.00;80.50;;;;;;10437834;28;20021;-68
2023/07/08 14:50:48;;;;;;;7.22;4.45;;;27.20;80.30;;;;;;10437021;28;20018;-67
2023/07/08 14:55:52;;;;;;;5.78;4.25;;;27.30;79.90;;;;;;10443523;28;20028;-67
2023/07/08 15:00:59;;;;;;;7.95;4.38;;;27.40;79.90;;;;;;10449012;28;20021;-67
2023/07/08 15:06:01;;;;;;;8.00;4.60;;;27.50;79.60;;;;;;10455238;28;20033;-67
2023/07/08 15:11:05;;;;;;;6.57;4.10;;;27.60;79.70;;;;;;10442011;28;20109;-67
2023/07/08 15:16:12;;;;;;;8.55;4.15;;;27.70;79.70;;;;;;10446427;28;20024;-67
2023/07/08 15:21:13;;;;;;;6.63;4.28;;;27.80;79.60;;;;;;10447408;28;20103;-67
2023/07/08 15:26:15;;;;;;;5.95;4.13;;;27.90;80.10;;;;;;10444012;28;20035;-67
2023/07/08 15:31:24;;;;;;;6.13;4.22;;;28.00;79.40;;;;;;10446414;28;20051;-67
2023/07/08 15:36:25;;;;;;;7.75;4.00;;;28.10;79.20;;;;;;10431956;28;20108;-66
2023/07/08 15:41:27;;;;;;;6.15;4.25;;;28.20;79.30;;;;;;10447311;28;20041;-68
2023/07/08 15:46:32;;;;;;;5.90;4.30;;;28.30;79.20;;;;;;10451795;28;20035;-68
2023/07/08 15:51:33;;;;;;;7.20;4.03;;;28.40;79.10;;;;;;10442248;28;20017;-67
2023/07/08 15:56:33;;;;;;;6.22;4.28;;;28.50;79.00;;;;;;10429783;28;20021;-66
2023/07/08 16:01:34;;;;;;;7.55;4.13;;;28.50;79.00;;;;;;10452286;28;20077;-68
2023/07/08 16:06:35;;;;;;;5.30;3.70;;;28.50;79.20;;;;;;10449489;28;20016;-68
2023/07/08 16:11:35;;;;;;;6.80;4.50;;;28.40;79.10;;;;;;10451651;28;20028;-68
2023/07/08 16:16:36;;;;;;;6.45;4.07;;;28.40;79.20;;;;;;10434916;28;20110;-67
2023/07/08 16:21:38;;;;;;;8.05;4.40;;;28.40;79.50;;;;;;10445934;28;20028;-68
2023/07/08 16:26:43;;;;;;;6.95;4.25;;;28.30;79.60;;;;;;10443881;28;20465;-68
2023/07/08 16:31:43;;;;;;;6.40;4.40;;;28.20;79.70;;;;;;10444568;28;20035;-67
2023/07/08 16:36:44;;;;;;;7.28;3.85;;;28.20;79.80;;;;;;10441410;28;20061;-67
2023/07/08 16:41:45;;;;;;;8.23;4.18;;;28.20;80.00;;;;;;10444650;28;20017;-68
2023/07/08 16:46:45;;;;;;;6.72;4.30;;;28.20;80.20;;;;;;10448903;28;20020;-68
2023/07/08 16:51:46;;;;;;;7.07;4.22;;;28.10;80.30;;;;;;10446855;28;20028;-68
2023/07/08 16:56:47;;;;;;;5.72;3.83;;;28.10;80.40;;;;;;10432102;28;20052;-68
2023/07/08 17:01:47;;;;;;;8.82;4.07;;;28.00;80.50;;;;;;10452087;28;20017;-68
2023/07/08 17:06:48;;;;;;;7.25;4.57;;;28.00;80.70;;;;;;10453565;28;20014;-67
2023/07/08 17:11:49;;;;;;;5.78;4.07;;;28.00;80.80;;;;;;10444959;28;20507;-68
2023/07/08 17:16:49;;;;;;;6.68;4.32;;;28.00;81.00;;;;;;10443204;28;20107;-68
2023/07/08 17:21:50;;;;;;;6.57;4.40;;;27.90;81.10;;;;;;10438537;28;20016;-68
2023/07/08 17:26:50;;;;;;;5.47;3.80;;;27.90;81.30;;;;;;10439110;28;20028;-67
2023/07/08 17:31:53;;;;;;;7.95;4.53;;;27.90;81.50;;;;;;10444464;28;20074;-66
2023/07/08 17:36:54;;;;;;;5.22;4.03;;;27.80;81.60;;;;;;10438368;28;20416;-68
2023/07/08 17:41:54;;;;;;;7.20;4.45;;;27.70;81.80;;;;;;10426764;28;20025;-68
2023/07/08 17:46:56;;;;;;;7.20;4.25;;;27.70;82.00;;;;;;10433892;28;20016;-67
2023/07/08 17:51:57;;;;;;;5.97;4.25;;;27.70;82.20;;;;;;10438759;28;20028;-68
2023/07/08 17:57:00;;;;;;;6.78;4.50;;;27.60;82.30;;;;;;10436266;28;20029;-68
2023/07/08 18:02:00;;;;;;;5.50;3.88;;;27.60;82.50;;;;;;10440592;28;20028;-67
2023/07/08 18:07:01;;;;;;;7.13;4.38;;;27.50;82.60;;;;;;10440623;28;20037;-67
2023/07/08 18:12:02;;;;;;;6.18;3.92;;;27.50;82.80;;;;;;10425688;28;20031;-67
2023/07/08 18:17:02;;;;;;;5.97;3.92;;;27.50;83.00;;;;;;10432822;28;20491;-66
2023/07/08 18:22:03;;;;;;;8.05;4.45;;;27.40;83.10;;;;;;10431971;28;20417;-66
2023/07/08 18:27:04;;;;;;;5.38;3.60;;;27.40;83.30;;;;;;10437541;28;20041;-67
2023/07/08 18:32:11;;;;;;;5.68;3.90;;;27.30;83.40;;;;;;10441711;28;20377;-66
2023/07/08 18:37:11;;;;;;;5.87;3.57;;;27.30;83.50;;;;;;10439491;28;20036;-67
2023/07/08 18:42:12;;;;;;;7.45;4.70;;;27.30;83.60;;;;;;10442156;28;20431;-67
2023/07/08 18:47:13;;;;;;;6.30;3.85;;;27.20;83.70;;;;;;10437428;28;20463;-67
2023/07/08 18:52:14;;;;;;;6.30;4.03;;;27.20;83.90;;;;;;10449638;28;20032;-67
2023/07/08 18:57:15;;;;;;;6.10;3.97;;;27.20;84.20;;;;;;10456165;28;20028;-66
2023/07/08 19:02:33;;;;;;;6.82;3.85;;;27.10;84.10;;;;;;10453839;28;20027;-65
2023/07/08 19:07:33;;;;;;;4.95;3.67;;;27.10;84.10;;;;;;10453950;28;20025;-65
2023/07/08 19:12:34;;;;;;;6.78;3.58;;;27.00;84.20;;;;;;10446133;28;20293;-66
2023/07/08 19:17:35;;;;;;;6.45;3.88;;;27.00;84.30;;;;;;10444040;28;20027;-65
2023/07/08 19:22:36;;;;;;;6.55;3.97;;;26.90;84.40;;;;;;10436469;28;20370;-66
2023/07/08 19:27:36;;;;;;;5.80;4.10;;;26.90;85.20;;;;;;10446913;28;20032;-67
2023/07/08 19:33:02;;;;;;;5.18;3.35;;;26.90;84.80;;;;;;10446139;28;20084;-67
2023/07/08 19:38:03;;;;;;;6.97;3.90;;;26.80;84.90;;;;;;10446768;28;20095;-67
2023/07/08 19:43:04;;;;;;;6.22;4.30;;;26.80;85.10;;;;;;10443892;28;20028;-67
2023/07/08 19:48:05;;;;;;;5.57;4.00;;;26.70;85.20;;;;;;10455403;28;20029;-65
2023/07/08 19:53:06;;;;;;;7.18;4.25;;;26.70;85.30;;;;;;10447150;28;20440;-66
2023/07/08 19:58:11;;;;;;;6.80;3.92;;;26.60;85.40;;;;;;10450266;28;20022;-66
2023/07/08 20:03:14;;;;;;;7.20;3.90;;;26.60;85.50;;;;;;10449797;28;20075;-69
2023/07/08 20:08:21;;;;;;;6.03;4.28;;;26.50;85.50;;;;;;10452451;28;20440;-68
2023/07/08 20:13:23;;;;;;;5.40;4.05;;;26.50;85.70;;;;;;10444516;28;20040;-68
2023/07/08 20:18:29;;;;;;;5.75;3.88;;;26.40;85.70;;;;;;10454023;28;20171;-68
2023/07/08 20:23:29;;;;;;;5.25;4.10;;;26.30;85.80;;;;;;10444897;28;20024;-68
2023/07/08 20:28:32;;;;;;;5.53;3.92;;;26.30;85.90;;;;;;10456580;28;20025;-68
2023/07/08 20:33:32;;;;;;;6.53;4.20;;;26.20;85.90;;;;;;10445070;28;20100;-68
2023/07/08 20:38:33;;;;;;;6.43;4.07;;;26.20;86.00;;;;;;10444849;28;20020;-69
2023/07/08 20:43:33;;;;;;;6.60;3.75;;;26.20;86.10;;;;;;10439970;28;20021;-69
2023/07/08 20:48:34;;;;;;;5.32;3.78;;;26.10;86.10;;;;;;10444034;28;20485;-68
2023/07/08 20:53:35;;;;;;;6.25;4.00;;;26.10;86.20;;;;;;10444908;28;20021;-69
2023/07/08 20:58:35;;;;;;;5.28;3.85;;;26.00;86.20;;;;;;10443197;28;20025;-68
2023/07/08 21:03:37;;;;;;;5.00;3.67;;;26.00;86.30;;;;;;10445173;28;20059;-69
2023/07/08 21:08:43;;;;;;;5.30;3.95;;;25.90;86.30;;;;;;10454899;28;20585;-68
2023/07/08 21:13:44;;;;;;;5.53;3.95;;;25.90;86.40;;;;;;10434186;28;20039;-68
2023/07/08 21:18:45;;;;;;;6.70;4.30;;;25.90;86.40;;;;;;10441108;28;20210;-68
2023/07/08 21:23:46;;;;;;;6.20;3.95;;;25.90;86.50;;;;;;10445681;28;20030;-69
2023/07/08 21:28:49;;;;;;;5.18;3.72;;;25.80;86.40;;;;;;10448803;28;20070;-69
2023/07/08 21:33:50;;;;;;;6.13;4.30;;;25.80;86.50;;;;;;10458678;28;20024;-68
2023/07/08 21:38:53;;;;;;;5.32;3.60;;;25.70;86.50;;;;;;10452366;28;20492;-68
2023/07/08 21:43:53;;;;;;;6.93;4.30;;;25.70;86.50;;;;;;10438668;28;21996;-69
2023/07/08 21:48:54;;;;;;;7.25;4.32;;;25.70;86.60;;;;;;10431199;28;20032;-68
2023/07/08 21:53:56;;;;;;;5.85;4.00;;;25.60;86.60;;;;;;10427397;28;20312;-68
2023/07/08 21:58:56;;;;;;;5.38;4.03;;;25.60;86.60;;;;;;10426306;28;20021;-68
2023/07/08 22:03:57;;;;;;;6.90;4.13;;;25.60;86.70;;;;;;10430299;28;20017;-69
2023/07/08 22:08:58;;;;;;;6.90;4.10;;;25.50;86.70;;;;;;10436097;28;20029;-68
2023/07/08 22:13:59;;;;;;;6.90;4.35;;;25.50;86.70;;;;;;10438433;28;20036;-68
2023/07/08 22:19:01;;;;;;;6.85;4.40;;;25.40;86.70;;;;;;10436067;28;20028;-68
2023/07/08 22:24:04;;;;;;;8.70;4.50;;;25.40;86.70;;;;;;10450698;28;20405;-68
2023/07/08 22:29:05;;;;;;;6.20;4.10;;;25.40;86.70;;;;;;10456898;28;20029;-68
2023/07/08 22:34:24;;;;;;;7.22;5.03;;;25.30;86.70;;;;;;10438125;28;20037;-68
2023/07/08 22:39:24;;;;;;;6.35;4.35;;;25.30;86.70;;;;;;10452352;28;20029;-68
2023/07/08 22:44:25;;;;;;;7.20;4.63;;;25.20;86.70;;;;;;10450781;28;20025;-69
2023/07/08 22:49:26;;;;;;;7.53;4.63;;;25.10;86.70;;;;;;10447879;28;20092;-68
2023/07/08 22:54:27;;;;;;;6.68;4.50;;;25.20;86.80;;;;;;10435636;28;20031;-68
2023/07/08 22:59:28;;;;;;;6.63;4.20;;;25.10;86.70;;;;;;10443265;28;20534;-68
2023/07/08 23:04:29;;;;;;;6.30;4.32;;;25.10;86.80;;;;;;10437286;28;20036;-68
2023/07/08 23:09:30;;;;;;;7.15;4.38;;;25.00;86.70;;;;;;10448638;28;20032;-68
2023/07/08 23:14:30;;;;;;;6.75;4.70;;;25.00;86.70;;;;;;10448396;28;20020;-68
2023/07/08 23:19:31;;;;;;;6.93;4.75;;;25.00;86.70;;;;;;10450261;28;20078;-68
2023/07/08 23:24:31;;;;;;;8.00;4.63;;;24.90;86.70;;;;;;10456159;28;20028;-69
2023/07/08 23:29:32;;;;;;;6.30;4.40;;;24.90;87.30;;;;;;10453879;28;20024;-68
2023/07/08 23:34:33;;;;;;;7.00;4.97;;;24.90;86.70;;;;;;10439345;28;20022;-68
2023/07/08 23:39:33;;;;;;;10.90;5.00;;;24.80;86.60;;;;;;10445923;28;20054;-68
2023/07/08 23:44:34;;;;;;;6.72;4.88;;;24.80;86.70;;;;;;10448423;28;20017;-69
2023/07/08 23:49:39;;;;;;;7.93;4.90;;;24.80;86.70;;;;;;10446989;28;20103;-69
2023/07/08 23:54:40;;;;;;;7.32;4.70;;;24.70;86.60;;;;;;10443608;28;20025;-69
2023/07/08 23:59:49;;;;;;;9.00;4.93;;;24.70;86.70;;;;;;10446793;28;20022;-68
